sensor_id;sensor_type;location;lat;lon;timestamp;temperature;humidity
57833;DHT22;43667;53.036;6.740;2023-07-13T00:00:23;15.00;99.90
57833;DHT22;43667;53.036;6.740;2023-07-13T00:02:49;15.00;99.90
57833;DHT22;43667;53.036;6.740;2023-07-13T00:05:14;14.90;99.90
57833;DHT22;43667;53.036;6.740;2023-07-13T00:07:40;14.90;99.90
57833;DHT22;43667;53.036;6.740;2023-07-13T00:10:06;14.90;99.90
57833;DHT22;43667;53.036;6.740;2023-07-13T00:12:35;14.90;99.90
57833;DHT22;43667;53.036;6.740;2023-07-13T00:15:09;14.90;99.90
57833;DHT22;43667;53.036;6.740;2023-07-13T00:17:35;14.90;99.90
57833;DHT22;43667;53.036;6.740;2023-07-13T00:20:01;14.90;99.90
57833;DHT22;43667;53.036;6.740;2023-07-13T00:22:27;14.90;99.90
57833;DHT22;43667;53.036;6.740;2023-07-13T00:24:53;14.90;99.90
57833;DHT22;43667;53.036;6.740;2023-07-13T00:27:21;14.90;99.90
57833;DHT22;43667;53.036;6.740;2023-07-13T00:29:47;14.90;99.90
57833;DHT22;43667;53.036;6.740;2023-07-13T00:32:13;14.90;99.90
57833;DHT22;43667;53.036;6.740;2023-07-13T00:34:39;14.90;99.90
57833;DHT22;43667;53.036;6.740;2023-07-13T00:37:06;14.90;99.90
57833;DHT22;43667;53.036;6.740;2023-07-13T00:39:33;15.00;99.90
57833;DHT22;43667;53.036;6.740;2023-07-13T00:42:00;15.00;99.90
57833;DHT22;43667;53.036;6.740;2023-07-13T00:44:26;15.00;99.90
57833;DHT22;43667;53.036;6.740;2023-07-13T00:46:51;15.00;99.90
57833;DHT22;43667;53.036;6.740;2023-07-13T00:49:20;15.10;99.90
57833;DHT22;43667;53.036;6.740;2023-07-13T00:51:57;15.10;99.90
57833;DHT22;43667;53.036;6.740;2023-07-13T00:54:30;15.10;99.90
57833;DHT22;43667;53.036;6.740;2023-07-13T00:57:00;15.20;99.90
57833;DHT22;43667;53.036;6.740;2023-07-13T00:59:27;15.20;99.90
57833;DHT22;43667;53.036;6.740;2023-07-13T01:01:52;15.20;99.90
57833;DHT22;43667;53.036;6.740;2023-07-13T01:04:19;15.30;99.90
57833;DHT22;43667;53.036;6.740;2023-07-13T01:06:45;15.30;99.90
57833;DHT22;43667;53.036;6.740;2023-07-13T01:09:12;15.30;99.90
57833;DHT22;43667;53.036;6.740;2023-07-13T01:11:39;15.30;99.90
57833;DHT22;43667;53.036;6.740;2023-07-13T01:14:05;15.30;99.90
57833;DHT22;43667;53.036;6.740;2023-07-13T01:16:32;15.30;99.90
57833;DHT22;43667;53.036;6.740;2023-07-13T01:18:59;15.30;99.90
57833;DHT22;43667;53.036;6.740;2023-07-13T01:21:28;15.30;99.90
57833;DHT22;43667;53.036;6.740;2023-07-13T01:23:54;15.40;99.90
57833;DHT22;43667;53.036;6.740;2023-07-13T01:26:20;15.40;99.90
57833;DHT22;43667;53.036;6.740;2023-07-13T01:28:46;15.40;99.90
57833;DHT22;43667;53.036;6.740;2023-07-13T01:31:12;15.40;99.90
57833;DHT22;43667;53.036;6.740;2023-07-13T01:33:40;15.40;99.90
57833;DHT22;43667;53.036;6.740;2023-07-13T01:36:10;15.40;99.90
57833;DHT22;43667;53.036;6.740;2023-07-13T01:38:36;15.40;99.90
57833;DHT22;43667;53.036;6.740;2023-07-13T01:41:02;15.40;99.90
57833;DHT22;43667;53.036;6.740;2023-07-13T01:43:28;15.40;99.90
57833;DHT22;43667;53.036;6.740;2023-07-13T01:45:53;15.40;99.90
57833;DHT22;43667;53.036;6.740;2023-07-13T01:48:19;15.50;99.90
57833;DHT22;43667;53.036;6.740;2023-07-13T01:50:46;15.50;99.90
57833;DHT22;43667;53.036;6.740;2023-07-13T01:53:12;15.50;99.90
57833;DHT22;43667;53.036;6.740;2023-07-13T01:55:38;15.50;99.90
57833;DHT22;43667;53.036;6.740;2023-07-13T01:58:04;15.50;99.90
57833;DHT22;43667;53.036;6.740;2023-07-13T02:00:30;15.50;99.90
57833;DHT22;43667;53.036;6.740;2023-07-13T02:02:56;15.50;99.90
57833;DHT22;43667;53.036;6.740;2023-07-13T02:05:22;15.50;99.90
57833;DHT22;43667;53.036;6.740;2023-07-13T02:07:48;15.50;99.90
57833;DHT22;43667;53.036;6.740;2023-07-13T02:10:14;15.50;99.90
57833;DHT22;43667;53.036;6.740;2023-07-13T02:12:41;15.50;99.90
57833;DHT22;43667;53.036;6.740;2023-07-13T02:15:08;15.50;99.90
57833;DHT22;43667;53.036;6.740;2023-07-13T02:17:34;15.50;99.90
57833;DHT22;43667;53.036;6.740;2023-07-13T02:20:00;15.50;99.90
57833;DHT22;43667;53.036;6.740;2023-07-13T02:22:26;15.50;99.90
57833;DHT22;43667;53.036;6.740;2023-07-13T02:24:52;15.50;99.90
57833;DHT22;43667;53.036;6.740;2023-07-13T02:27:18;15.50;99.90
57833;DHT22;43667;53.036;6.740;2023-07-13T02:29:43;15.50;99.90
57833;DHT22;43667;53.036;6.740;2023-07-13T02:32:09;15.50;99.90
57833;DHT22;43667;53.036;6.740;2023-07-13T02:34:35;15.40;99.90
57833;DHT22;43667;53.036;6.740;2023-07-13T02:37:01;15.50;99.90
57833;DHT22;43667;53.036;6.740;2023-07-13T02:39:26;15.50;99.90
57833;DHT22;43667;53.036;6.740;2023-07-13T02:41:52;15.40;99.90
57833;DHT22;43667;53.036;6.740;2023-07-13T02:44:18;15.40;99.90
57833;DHT22;43667;53.036;6.740;2023-07-13T02:46:43;15.40;99.90
57833;DHT22;43667;53.036;6.740;2023-07-13T02:49:10;15.40;99.90
57833;DHT22;43667;53.036;6.740;2023-07-13T02:51:35;15.40;99.90
57833;DHT22;43667;53.036;6.740;2023-07-13T02:54:02;15.30;99.90
57833;DHT22;43667;53.036;6.740;2023-07-13T02:56:29;15.30;99.90
57833;DHT22;43667;53.036;6.740;2023-07-13T02:58:56;15.30;99.90
57833;DHT22;43667;53.036;6.740;2023-07-13T03:01:22;15.20;99.90
57833;DHT22;43667;53.036;6.740;2023-07-13T03:03:51;15.20;99.90
57833;DHT22;43667;53.036;6.740;2023-07-13T03:06:18;15.20;99.90
57833;DHT22;43667;53.036;6.740;2023-07-13T03:08:44;15.20;99.90
57833;DHT22;43667;53.036;6.740;2023-07-13T03:11:14;15.10;99.90
57833;DHT22;43667;53.036;6.740;2023-07-13T03:13:41;15.10;99.90
57833;DHT22;43667;53.036;6.740;2023-07-13T03:16:08;15.00;99.90
57833;DHT22;43667;53.036;6.740;2023-07-13T03:18:36;15.00;99.90
57833;DHT22;43667;53.036;6.740;2023-07-13T03:21:02;15.00;99.90
57833;DHT22;43667;53.036;6.740;2023-07-13T03:23:28;15.00;99.90
57833;DHT22;43667;53.036;6.740;2023-07-13T03:26:12;15.00;99.90
57833;DHT22;43667;53.036;6.740;2023-07-13T03:28:39;15.00;99.90
57833;DHT22;43667;53.036;6.740;2023-07-13T03:31:11;14.90;99.90
57833;DHT22;43667;53.036;6.740;2023-07-13T03:33:37;14.90;99.90
57833;DHT22;43667;53.036;6.740;2023-07-13T03:36:05;14.90;99.90
57833;DHT22;43667;53.036;6.740;2023-07-13T03:38:31;14.90;99.90
57833;DHT22;43667;53.036;6.740;2023-07-13T03:40:56;14.90;99.90
57833;DHT22;43667;53.036;6.740;2023-07-13T03:43:22;14.90;99.90
57833;DHT22;43667;53.036;6.740;2023-07-13T03:45:48;14.90;99.90
57833;DHT22;43667;53.036;6.740;2023-07-13T03:48:14;14.90;99.90
57833;DHT22;43667;53.036;6.740;2023-07-13T03:50:40;14.90;99.90
57833;DHT22;43667;53.036;6.740;2023-07-13T03:53:06;14.90;99.90
57833;DHT22;43667;53.036;6.740;2023-07-13T03:55:32;14.90;99.90
57833;DHT22;43667;53.036;6.740;2023-07-13T04:00:42;14.90;99.90
57833;DHT22;43667;53.036;6.740;2023-07-13T04:03:08;14.90;99.90
57833;DHT22;43667;53.036;6.740;2023-07-13T04:05:34;14.90;99.90
57833;DHT22;43667;53.036;6.740;2023-07-13T04:07:59;15.00;99.90
57833;DHT22;43667;53.036;6.740;2023-07-13T04:10:25;15.00;99.90
57833;DHT22;43667;53.036;6.740;2023-07-13T04:12:51;15.00;99.90
57833;DHT22;43667;53.036;6.740;2023-07-13T04:15:16;15.00;99.90
57833;DHT22;43667;53.036;6.740;2023-07-13T04:17:42;15.10;99.90
57833;DHT22;43667;53.036;6.740;2023-07-13T04:20:08;15.20;99.90
57833;DHT22;43667;53.036;6.740;2023-07-13T04:22:33;15.20;99.90
57833;DHT22;43667;53.036;6.740;2023-07-13T04:24:59;15.20;99.90
57833;DHT22;43667;53.036;6.740;2023-07-13T04:27:24;15.20;99.90
57833;DHT22;43667;53.036;6.740;2023-07-13T04:29:50;15.20;99.90
57833;DHT22;43667;53.036;6.740;2023-07-13T04:34:52;15.20;99.90
57833;DHT22;43667;53.036;6.740;2023-07-13T04:37:21;15.20;99.90
57833;DHT22;43667;53.036;6.740;2023-07-13T04:39:46;15.20;99.90
57833;DHT22;43667;53.036;6.740;2023-07-13T04:42:12;15.30;99.90
57833;DHT22;43667;53.036;6.740;2023-07-13T04:44:38;15.30;99.90
57833;DHT22;43667;53.036;6.740;2023-07-13T04:47:03;15.30;99.90
57833;DHT22;43667;53.036;6.740;2023-07-13T04:49:29;15.40;99.90
57833;DHT22;43667;53.036;6.740;2023-07-13T04:51:55;15.40;99.90
57833;DHT22;43667;53.036;6.740;2023-07-13T04:54:21;15.40;99.90
57833;DHT22;43667;53.036;6.740;2023-07-13T04:56:47;15.50;99.90
57833;DHT22;43667;53.036;6.740;2023-07-13T04:59:13;15.50;99.90
57833;DHT22;43667;53.036;6.740;2023-07-13T05:01:38;15.50;99.90
57833;DHT22;43667;53.036;6.740;2023-07-13T05:04:04;15.50;99.90
57833;DHT22;43667;53.036;6.740;2023-07-13T05:06:30;15.50;99.90
57833;DHT22;43667;53.036;6.740;2023-07-13T05:08:56;15.60;99.90
57833;DHT22;43667;53.036;6.740;2023-07-13T05:11:24;15.70;99.90
57833;DHT22;43667;53.036;6.740;2023-07-13T05:13:49;15.80;99.90
57833;DHT22;43667;53.036;6.740;2023-07-13T05:16:15;15.80;99.90
57833;DHT22;43667;53.036;6.740;2023-07-13T05:18:41;15.90;99.90
57833;DHT22;43667;53.036;6.740;2023-07-13T05:21:09;15.90;99.90
57833;DHT22;43667;53.036;6.740;2023-07-13T05:23:35;15.90;99.90
57833;DHT22;43667;53.036;6.740;2023-07-13T05:26:02;15.90;99.90
57833;DHT22;43667;53.036;6.740;2023-07-13T05:28:29;16.00;99.90
57833;DHT22;43667;53.036;6.740;2023-07-13T05:30:55;16.10;99.90
57833;DHT22;43667;53.036;6.740;2023-07-13T05:33:21;16.10;99.90
57833;DHT22;43667;53.036;6.740;2023-07-13T05:35:47;16.20;99.90
57833;DHT22;43667;53.036;6.740;2023-07-13T05:38:13;16.20;99.90
57833;DHT22;43667;53.036;6.740;2023-07-13T05:40:38;16.20;99.90
57833;DHT22;43667;53.036;6.740;2023-07-13T05:43:04;16.30;99.90
57833;DHT22;43667;53.036;6.740;2023-07-13T05:45:30;16.40;99.90
57833;DHT22;43667;53.036;6.740;2023-07-13T05:47:55;16.50;99.90
57833;DHT22;43667;53.036;6.740;2023-07-13T05:50:21;16.60;99.90
57833;DHT22;43667;53.036;6.740;2023-07-13T05:52:47;16.70;99.90
57833;DHT22;43667;53.036;6.740;2023-07-13T05:55:13;16.80;99.90
57833;DHT22;43667;53.036;6.740;2023-07-13T05:57:38;16.90;99.90
57833;DHT22;43667;53.036;6.740;2023-07-13T06:00:04;17.10;99.90
57833;DHT22;43667;53.036;6.740;2023-07-13T06:02:30;17.10;99.90
57833;DHT22;43667;53.036;6.740;2023-07-13T06:04:56;17.30;99.90
57833;DHT22;43667;53.036;6.740;2023-07-13T06:07:21;17.40;99.90
57833;DHT22;43667;53.036;6.740;2023-07-13T06:09:47;17.50;99.90
57833;DHT22;43667;53.036;6.740;2023-07-13T06:12:13;17.50;99.90
57833;DHT22;43667;53.036;6.740;2023-07-13T06:14:38;17.60;99.90
57833;DHT22;43667;53.036;6.740;2023-07-13T06:17:04;17.80;99.90
57833;DHT22;43667;53.036;6.740;2023-07-13T06:19:30;17.80;99.90
57833;DHT22;43667;53.036;6.740;2023-07-13T06:21:56;17.90;99.90
57833;DHT22;43667;53.036;6.740;2023-07-13T06:24:24;18.00;99.90
57833;DHT22;43667;53.036;6.740;2023-07-13T06:26:49;18.10;99.90
57833;DHT22;43667;53.036;6.740;2023-07-13T06:29:15;18.20;99.90
57833;DHT22;43667;53.036;6.740;2023-07-13T06:31:41;18.30;99.90
57833;DHT22;43667;53.036;6.740;2023-07-13T06:34:06;18.50;99.90
57833;DHT22;43667;53.036;6.740;2023-07-13T06:36:32;18.60;99.90
57833;DHT22;43667;53.036;6.740;2023-07-13T06:38:58;18.70;99.90
57833;DHT22;43667;53.036;6.740;2023-07-13T06:41:23;18.80;99.90
57833;DHT22;43667;53.036;6.740;2023-07-13T06:43:51;18.90;99.90
57833;DHT22;43667;53.036;6.740;2023-07-13T06:46:18;19.00;99.90
57833;DHT22;43667;53.036;6.740;2023-07-13T06:48:43;19.20;99.90
57833;DHT22;43667;53.036;6.740;2023-07-13T06:51:09;19.30;99.90
57833;DHT22;43667;53.036;6.740;2023-07-13T06:53:34;19.50;99.90
57833;DHT22;43667;53.036;6.740;2023-07-13T06:56:00;19.50;99.90
57833;DHT22;43667;53.036;6.740;2023-07-13T06:58:26;19.70;99.90
57833;DHT22;43667;53.036;6.740;2023-07-13T07:00:52;19.80;99.90
57833;DHT22;43667;53.036;6.740;2023-07-13T07:03:18;19.90;99.90
57833;DHT22;43667;53.036;6.740;2023-07-13T07:05:43;20.00;99.90
57833;DHT22;43667;53.036;6.740;2023-07-13T07:08:09;20.20;99.90
57833;DHT22;43667;53.036;6.740;2023-07-13T07:10:35;20.30;99.90
57833;DHT22;43667;53.036;6.740;2023-07-13T07:13:02;20.40;99.90
57833;DHT22;43667;53.036;6.740;2023-07-13T07:15:28;20.50;99.90
57833;DHT22;43667;53.036;6.740;2023-07-13T07:17:53;20.60;99.90
57833;DHT22;43667;53.036;6.740;2023-07-13T07:20:19;20.80;99.90
57833;DHT22;43667;53.036;6.740;2023-07-13T07:22:46;20.90;99.90
57833;DHT22;43667;53.036;6.740;2023-07-13T07:25:12;21.10;99.90
57833;DHT22;43667;53.036;6.740;2023-07-13T07:27:38;21.30;99.90
57833;DHT22;43667;53.036;6.740;2023-07-13T07:30:04;21.60;99.90
57833;DHT22;43667;53.036;6.740;2023-07-13T07:32:30;21.60;99.90
57833;DHT22;43667;53.036;6.740;2023-07-13T07:34:57;21.50;99.90
57833;DHT22;43667;53.036;6.740;2023-07-13T07:37:23;21.40;99.90
57833;DHT22;43667;53.036;6.740;2023-07-13T07:39:49;21.40;99.90
57833;DHT22;43667;53.036;6.740;2023-07-13T07:42:15;21.30;99.90
57833;DHT22;43667;53.036;6.740;2023-07-13T07:44:41;21.20;99.90
57833;DHT22;43667;53.036;6.740;2023-07-13T07:47:07;21.20;99.90
57833;DHT22;43667;53.036;6.740;2023-07-13T07:49:34;21.40;99.90
57833;DHT22;43667;53.036;6.740;2023-07-13T07:51:59;21.50;99.90
57833;DHT22;43667;53.036;6.740;2023-07-13T07:54:25;21.60;99.90
57833;DHT22;43667;53.036;6.740;2023-07-13T07:56:51;21.80;99.90
57833;DHT22;43667;53.036;6.740;2023-07-13T07:59:16;22.10;99.90
57833;DHT22;43667;53.036;6.740;2023-07-13T08:01:42;22.30;99.90
57833;DHT22;43667;53.036;6.740;2023-07-13T08:04:08;22.40;99.90
57833;DHT22;43667;53.036;6.740;2023-07-13T08:06:34;22.40;99.90
57833;DHT22;43667;53.036;6.740;2023-07-13T08:09:00;21.90;99.90
57833;DHT22;43667;53.036;6.740;2023-07-13T08:11:27;21.40;99.90
57833;DHT22;43667;53.036;6.740;2023-07-13T08:13:53;20.80;99.90
57833;DHT22;43667;53.036;6.740;2023-07-13T08:16:19;20.40;99.90
57833;DHT22;43667;53.036;6.740;2023-07-13T08:18:45;20.20;99.90
57833;DHT22;43667;53.036;6.740;2023-07-13T08:21:10;20.00;99.90
57833;DHT22;43667;53.036;6.740;2023-07-13T08:23:36;19.90;99.90
57833;DHT22;43667;53.036;6.740;2023-07-13T08:26:02;19.80;99.90
57833;DHT22;43667;53.036;6.740;2023-07-13T08:28:28;19.70;99.90
57833;DHT22;43667;53.036;6.740;2023-07-13T08:30:54;19.50;99.90
57833;DHT22;43667;53.036;6.740;2023-07-13T08:33:21;19.40;99.90
57833;DHT22;43667;53.036;6.740;2023-07-13T08:35:50;19.30;99.90
57833;DHT22;43667;53.036;6.740;2023-07-13T08:38:16;19.20;99.90
57833;DHT22;43667;53.036;6.740;2023-07-13T08:40:43;19.10;99.90
57833;DHT22;43667;53.036;6.740;2023-07-13T08:43:15;19.00;99.90
57833;DHT22;43667;53.036;6.740;2023-07-13T08:45:45;18.80;99.90
57833;DHT22;43667;53.036;6.740;2023-07-13T08:48:30;18.70;99.90
57833;DHT22;43667;53.036;6.740;2023-07-13T08:54:10;17.90;99.90
57833;DHT22;43667;53.036;6.740;2023-07-13T08:56:38;17.60;99.90
57833;DHT22;43667;53.036;6.740;2023-07-13T08:59:14;17.40;99.90
57833;DHT22;43667;53.036;6.740;2023-07-13T09:02:16;17.20;99.90
57833;DHT22;43667;53.036;6.740;2023-07-13T09:05:00;17.10;99.90
57833;DHT22;43667;53.036;6.740;2023-07-13T09:10:20;17.00;99.90
57833;DHT22;43667;53.036;6.740;2023-07-13T09:15:41;17.00;99.90
57833;DHT22;43667;53.036;6.740;2023-07-13T09:18:23;16.90;99.90
57833;DHT22;43667;53.036;6.740;2023-07-13T09:21:00;17.00;99.90
57833;DHT22;43667;53.036;6.740;2023-07-13T09:23:29;17.00;99.90
57833;DHT22;43667;53.036;6.740;2023-07-13T09:28:46;17.30;99.90
57833;DHT22;43667;53.036;6.740;2023-07-13T09:33:53;17.90;99.90
57833;DHT22;43667;53.036;6.740;2023-07-13T09:36:26;18.10;99.90
57833;DHT22;43667;53.036;6.740;2023-07-13T09:44:16;18.00;99.90
57833;DHT22;43667;53.036;6.740;2023-07-13T09:46:47;18.00;99.90
57833;DHT22;43667;53.036;6.740;2023-07-13T09:49:18;18.00;99.90
57833;DHT22;43667;53.036;6.740;2023-07-13T09:51:44;18.00;99.90
57833;DHT22;43667;53.036;6.740;2023-07-13T09:54:24;18.10;99.90
57833;DHT22;43667;53.036;6.740;2023-07-13T09:56:58;18.20;99.90
57833;DHT22;43667;53.036;6.740;2023-07-13T09:59:32;18.10;99.90
57833;DHT22;43667;53.036;6.740;2023-07-13T10:01:58;18.30;99.90
57833;DHT22;43667;53.036;6.740;2023-07-13T10:04:32;18.40;99.90
57833;DHT22;43667;53.036;6.740;2023-07-13T10:07:11;18.50;99.90
57833;DHT22;43667;53.036;6.740;2023-07-13T10:09:38;18.60;99.90
57833;DHT22;43667;53.036;6.740;2023-07-13T10:12:13;18.50;99.90
57833;DHT22;43667;53.036;6.740;2023-07-13T10:14:41;18.50;99.90
57833;DHT22;43667;53.036;6.740;2023-07-13T10:17:12;18.40;99.90
57833;DHT22;43667;53.036;6.740;2023-07-13T10:19:41;18.40;99.90
57833;DHT22;43667;53.036;6.740;2023-07-13T10:22:27;18.50;99.90
57833;DHT22;43667;53.036;6.740;2023-07-13T10:24:55;18.70;99.90
57833;DHT22;43667;53.036;6.740;2023-07-13T10:27:34;19.00;99.90
57833;DHT22;43667;53.036;6.740;2023-07-13T10:32:47;19.40;99.90
57833;DHT22;43667;53.036;6.740;2023-07-13T10:35:15;19.40;99.90
57833;DHT22;43667;53.036;6.740;2023-07-13T10:38:05;19.30;99.90
57833;DHT22;43667;53.036;6.740;2023-07-13T10:43:09;19.00;99.90
57833;DHT22;43667;53.036;6.740;2023-07-13T10:45:39;18.90;99.90
57833;DHT22;43667;53.036;6.740;2023-07-13T10:48:09;18.70;99.90
57833;DHT22;43667;53.036;6.740;2023-07-13T10:50:40;18.60;99.90
57833;DHT22;43667;53.036;6.740;2023-07-13T10:53:27;18.60;99.90
57833;DHT22;43667;53.036;6.740;2023-07-13T10:58:42;18.40;99.90
57833;DHT22;43667;53.036;6.740;2023-07-13T11:01:16;18.30;99.90
57833;DHT22;43667;53.036;6.740;2023-07-13T11:04:02;18.20;99.90
57833;DHT22;43667;53.036;6.740;2023-07-13T11:11:43;18.90;99.90
57833;DHT22;43667;53.036;6.740;2023-07-13T11:14:34;19.20;99.90
57833;DHT22;43667;53.036;6.740;2023-07-13T11:19:51;19.90;99.90
57833;DHT22;43667;53.036;6.740;2023-07-13T11:22:25;20.30;99.90
57833;DHT22;43667;53.036;6.740;2023-07-13T11:30:47;21.00;99.90
57833;DHT22;43667;53.036;6.740;2023-07-13T11:33:23;21.10;99.90
57833;DHT22;43667;53.036;6.740;2023-07-13T11:36:10;21.30;99.90
57833;DHT22;43667;53.036;6.740;2023-07-13T11:41:30;21.80;99.90
57833;DHT22;43667;53.036;6.740;2023-07-13T11:44:23;22.10;99.90
57833;DHT22;43667;53.036;6.740;2023-07-13T11:46:54;22.30;99.90
57833;DHT22;43667;53.036;6.740;2023-07-13T11:49:22;22.10;99.90
57833;DHT22;43667;53.036;6.740;2023-07-13T11:51:48;21.90;99.90
57833;DHT22;43667;53.036;6.740;2023-07-13T11:54:34;21.70;99.90
57833;DHT22;43667;53.036;6.740;2023-07-13T11:59:50;22.10;99.90
57833;DHT22;43667;53.036;6.740;2023-07-13T12:02:33;22.40;99.90
57833;DHT22;43667;53.036;6.740;2023-07-13T12:05:00;22.70;99.90
57833;DHT22;43667;53.036;6.740;2023-07-13T12:07:32;22.70;99.90
57833;DHT22;43667;53.036;6.740;2023-07-13T12:10:03;22.80;99.90
57833;DHT22;43667;53.036;6.740;2023-07-13T12:12:36;22.80;99.90
57833;DHT22;43667;53.036;6.740;2023-07-13T12:15:06;22.80;99.90
57833;DHT22;43667;53.036;6.740;2023-07-13T12:17:34;22.80;99.90
57833;DHT22;43667;53.036;6.740;2023-07-13T12:20:03;22.70;99.90
57833;DHT22;43667;53.036;6.740;2023-07-13T12:22:32;22.70;99.90
57833;DHT22;43667;53.036;6.740;2023-07-13T12:24:59;22.80;99.90
57833;DHT22;43667;53.036;6.740;2023-07-13T12:27:27;22.70;99.90
57833;DHT22;43667;53.036;6.740;2023-07-13T12:30:15;22.50;99.90
57833;DHT22;43667;53.036;6.740;2023-07-13T12:32:56;22.30;99.90
57833;DHT22;43667;53.036;6.740;2023-07-13T12:35:23;22.00;99.90
57833;DHT22;43667;53.036;6.740;2023-07-13T12:37:51;22.10;99.90
57833;DHT22;43667;53.036;6.740;2023-07-13T12:40:20;22.10;99.90
57833;DHT22;43667;53.036;6.740;2023-07-13T12:42:49;22.30;99.90
57833;DHT22;43667;53.036;6.740;2023-07-13T12:45:21;22.50;99.90
57833;DHT22;43667;53.036;6.740;2023-07-13T12:47:52;22.70;99.90
57833;DHT22;43667;53.036;6.740;2023-07-13T12:50:23;22.70;97.90
57833;DHT22;43667;53.036;6.740;2023-07-13T12:53:02;22.50;99.00
57833;DHT22;43667;53.036;6.740;2023-07-13T12:55:29;22.50;98.70
57833;DHT22;43667;53.036;6.740;2023-07-13T12:57:59;22.60;97.50
57833;DHT22;43667;53.036;6.740;2023-07-13T13:00:36;22.70;98.50
57833;DHT22;43667;53.036;6.740;2023-07-13T13:03:18;22.60;95.80
57833;DHT22;43667;53.036;6.740;2023-07-13T13:05:45;22.50;94.30
57833;DHT22;43667;53.036;6.740;2023-07-13T13:08:11;22.30;93.50
57833;DHT22;43667;53.036;6.740;2023-07-13T13:10:37;22.30;94.80
57833;DHT22;43667;53.036;6.740;2023-07-13T13:13:03;22.50;95.80
57833;DHT22;43667;53.036;6.740;2023-07-13T13:15:29;22.80;96.10
57833;DHT22;43667;53.036;6.740;2023-07-13T13:17:56;23.00;96.00
57833;DHT22;43667;53.036;6.740;2023-07-13T13:20:24;23.30;97.30
57833;DHT22;43667;53.036;6.740;2023-07-13T13:22:51;23.20;93.30
57833;DHT22;43667;53.036;6.740;2023-07-13T13:25:18;23.10;94.70
57833;DHT22;43667;53.036;6.740;2023-07-13T13:27:45;23.00;94.50
57833;DHT22;43667;53.036;6.740;2023-07-13T13:30:12;23.00;95.70
57833;DHT22;43667;53.036;6.740;2023-07-13T13:32:39;23.20;95.70
57833;DHT22;43667;53.036;6.740;2023-07-13T13:35:12;23.40;93.20
57833;DHT22;43667;53.036;6.740;2023-07-13T13:37:38;23.60;92.50
57833;DHT22;43667;53.036;6.740;2023-07-13T13:40:16;23.70;93.30
57833;DHT22;43667;53.036;6.740;2023-07-13T13:42:43;23.90;91.90
57833;DHT22;43667;53.036;6.740;2023-07-13T13:45:13;23.90;89.60
57833;DHT22;43667;53.036;6.740;2023-07-13T13:47:39;24.00;92.60
57833;DHT22;43667;53.036;6.740;2023-07-13T13:50:18;24.00;90.30
57833;DHT22;43667;53.036;6.740;2023-07-13T13:52:45;24.00;89.60
57833;DHT22;43667;53.036;6.740;2023-07-13T13:55:15;24.10;89.60
57833;DHT22;43667;53.036;6.740;2023-07-13T13:57:41;24.10;89.80
57833;DHT22;43667;53.036;6.740;2023-07-13T14:00:09;24.00;84.00
57833;DHT22;43667;53.036;6.740;2023-07-13T14:02:41;24.00;85.00
57833;DHT22;43667;53.036;6.740;2023-07-13T14:05:12;24.00;81.70
57833;DHT22;43667;53.036;6.740;2023-07-13T14:07:38;24.00;80.20
57833;DHT22;43667;53.036;6.740;2023-07-13T14:10:14;24.20;85.00
57833;DHT22;43667;53.036;6.740;2023-07-13T14:12:47;24.30;80.20
57833;DHT22;43667;53.036;6.740;2023-07-13T14:15:31;24.30;82.30
57833;DHT22;43667;53.036;6.740;2023-07-13T14:17:57;24.50;74.30
57833;DHT22;43667;53.036;6.740;2023-07-13T14:20:24;24.50;78.90
57833;DHT22;43667;53.036;6.740;2023-07-13T14:22:52;24.60;81.90
57833;DHT22;43667;53.036;6.740;2023-07-13T14:25:19;24.60;80.40
57833;DHT22;43667;53.036;6.740;2023-07-13T14:27:48;24.80;78.40
57833;DHT22;43667;53.036;6.740;2023-07-13T14:30:16;24.80;77.90
57833;DHT22;43667;53.036;6.740;2023-07-13T14:32:43;25.00;75.00
57833;DHT22;43667;53.036;6.740;2023-07-13T14:35:14;25.10;73.20
57833;DHT22;43667;53.036;6.740;2023-07-13T14:37:40;24.90;67.90
57833;DHT22;43667;53.036;6.740;2023-07-13T14:40:15;24.70;73.00
57833;DHT22;43667;53.036;6.740;2023-07-13T14:42:41;24.70;78.70
57833;DHT22;43667;53.036;6.740;2023-07-13T14:45:16;24.80;81.20
57833;DHT22;43667;53.036;6.740;2023-07-13T14:47:43;24.70;72.50
57833;DHT22;43667;53.036;6.740;2023-07-13T14:50:15;24.50;76.10
57833;DHT22;43667;53.036;6.740;2023-07-13T14:52:42;24.40;79.50
57833;DHT22;43667;53.036;6.740;2023-07-13T14:55:16;24.20;74.40
57833;DHT22;43667;53.036;6.740;2023-07-13T14:57:42;24.10;77.20
57833;DHT22;43667;53.036;6.740;2023-07-13T15:00:21;23.90;77.60
57833;DHT22;43667;53.036;6.740;2023-07-13T15:02:51;23.80;86.90
57833;DHT22;43667;53.036;6.740;2023-07-13T15:05:28;24.10;81.00
57833;DHT22;43667;53.036;6.740;2023-07-13T15:07:57;24.50;73.60
57833;DHT22;43667;53.036;6.740;2023-07-13T15:10:26;24.90;72.60
57833;DHT22;43667;53.036;6.740;2023-07-13T15:12:56;25.40;70.20
57833;DHT22;43667;53.036;6.740;2023-07-13T15:15:23;25.70;63.70
57833;DHT22;43667;53.036;6.740;2023-07-13T15:17:48;26.00;64.90
57833;DHT22;43667;53.036;6.740;2023-07-13T15:22:49;26.70;60.70
57833;DHT22;43667;53.036;6.740;2023-07-13T15:25:20;27.00;61.30
57833;DHT22;43667;53.036;6.740;2023-07-13T15:27:46;27.40;58.50
57833;DHT22;43667;53.036;6.740;2023-07-13T15:30:12;27.60;56.30
57833;DHT22;43667;53.036;6.740;2023-07-13T15:32:38;27.80;56.00
57833;DHT22;43667;53.036;6.740;2023-07-13T15:35:08;28.10;55.80
57833;DHT22;43667;53.036;6.740;2023-07-13T15:37:38;28.20;55.90
57833;DHT22;43667;53.036;6.740;2023-07-13T15:40:04;28.50;54.20
57833;DHT22;43667;53.036;6.740;2023-07-13T15:42:30;28.50;51.70
57833;DHT22;43667;53.036;6.740;2023-07-13T15:44:56;28.20;52.20
57833;DHT22;43667;53.036;6.740;2023-07-13T15:47:21;27.90;53.40
57833;DHT22;43667;53.036;6.740;2023-07-13T15:49:47;28.00;52.80
57833;DHT22;43667;53.036;6.740;2023-07-13T15:52:22;28.20;53.20
57833;DHT22;43667;53.036;6.740;2023-07-13T15:54:49;28.40;52.30
57833;DHT22;43667;53.036;6.740;2023-07-13T15:57:15;28.70;52.80
57833;DHT22;43667;53.036;6.740;2023-07-13T15:59:42;28.60;50.70
57833;DHT22;43667;53.036;6.740;2023-07-13T16:02:19;28.40;50.70
57833;DHT22;43667;53.036;6.740;2023-07-13T16:04:46;28.10;52.40
57833;DHT22;43667;53.036;6.740;2023-07-13T16:07:15;27.80;52.20
57833;DHT22;43667;53.036;6.740;2023-07-13T16:09:43;28.00;53.70
57833;DHT22;43667;53.036;6.740;2023-07-13T16:12:13;28.40;51.40
57833;DHT22;43667;53.036;6.740;2023-07-13T16:14:40;28.90;50.80
57833;DHT22;43667;53.036;6.740;2023-07-13T16:17:10;29.20;49.50
57833;DHT22;43667;53.036;6.740;2023-07-13T16:19:36;29.50;48.30
57833;DHT22;43667;53.036;6.740;2023-07-13T16:22:02;29.80;48.60
57833;DHT22;43667;53.036;6.740;2023-07-13T16:24:31;30.20;48.20
57833;DHT22;43667;53.036;6.740;2023-07-13T16:26:57;30.50;47.70
57833;DHT22;43667;53.036;6.740;2023-07-13T16:29:29;30.60;48.10
57833;DHT22;43667;53.036;6.740;2023-07-13T16:34:35;30.70;46.70